Time;durP1;ratioP1;P1;durP2;ratioP2;P2;SDS_P1;SDS_P2;PMS_P1;PMS_P2;Temp;Humidity;BMP_temperature;BMP_pressure;BME280_temperature;BME280_humidity;BME280_pressure;Samples;Min_cycle;Max_cycle;Signal;HPM_P1;HPM_P2
2021/04/18 00:00:18;;;;;;;14.98;13.57;;;;;;;6.17;66.85;95510.63;5007448;28;20045;-75
2021/04/18 00:02:45;;;;;;;14.07;12.75;;;;;;;5.54;68.31;95520.66;4992372;28;20038;-77
2021/04/18 00:05:11;;;;;;;15.52;14.13;;;;;;;5.35;69.74;95511.66;4992474;28;20034;-75
2021/04/18 00:07:37;;;;;;;15.13;13.75;;;;;;;5.36;70.11;95500.03;4994065;28;20543;-78
2021/04/18 00:10:05;;;;;;;15.48;14.07;;;;;;;5.00;71.44;95507.06;4992631;28;20034;-78
2021/04/18 00:12:30;;;;;;;15.77;14.35;;;;;;;4.95;72.00;95506.00;4992382;28;20509;-77
2021/04/18 00:14:55;;;;;;;15.40;13.98;;;;;;;5.41;70.36;95492.91;4992352;28;20038;-77
2021/04/18 00:17:21;;;;;;;15.68;14.38;;;;;;;5.36;69.44;95436.72;5007165;28;20023;-76
2021/04/18 00:19:47;;;;;;;16.30;14.80;;;;;;;5.75;68.94;95500.34;4994054;28;20424;-77
2021/04/18 00:22:12;;;;;;;17.08;15.55;;;;;;;5.73;68.51;95497.16;4991921;28;20035;-78
2021/04/18 00:24:38;;;;;;;14.70;13.40;;;;;;;6.10;68.49;95493.50;5007447;28;20081;-77
2021/04/18 00:27:04;;;;;;;15.65;14.13;;;;;;;6.22;67.48;95486.06;4992196;28;20061;-78
2021/04/18 00:29:30;;;;;;;16.92;15.48;;;;;;;5.99;67.75;95471.59;4992092;28;20030;-79
2021/04/18 00:31:55;;;;;;;16.33;14.82;;;;;;;5.86;68.09;95472.09;5008985;28;20027;-78
2021/04/18 00:34:21;;;;;;;17.50;15.82;;;;;;;5.95;68.04;95491.66;4991884;28;20521;-79
2021/04/18 00:36:47;;;;;;;17.80;15.95;;;;;;;5.72;68.33;95485.03;4991834;28;20407;-78
2021/04/18 00:39:12;;;;;;;16.95;15.48;;;;;;;5.58;68.69;95466.31;5005462;28;20392;-79
2021/04/18 00:41:38;;;;;;;17.17;15.57;;;;;;;5.91;68.02;95472.91;5006670;28;20038;-79
2021/04/18 00:44:03;;;;;;;18.05;16.27;;;;;;;5.69;68.53;95469.72;4993772;28;20034;-79
2021/04/18 00:46:29;;;;;;;19.02;17.27;;;;;;;5.34;69.89;95486.31;4991964;28;20030;-77
2021/04/18 00:48:54;;;;;;;17.80;16.10;;;;;;;5.62;69.42;95471.81;4991553;28;20030;-78
2021/04/18 00:51:20;;;;;;;19.08;17.27;;;;;;;5.77;68.85;95476.31;4991256;28;20616;-77
2021/04/18 00:53:45;;;;;;;17.98;16.27;;;;;;;5.58;69.75;95490.06;4991499;28;20026;-78
2021/04/18 00:56:11;;;;;;;18.73;16.45;;;;;;;5.17;70.78;95486.56;5006612;28;20496;-78
2021/04/18 00:58:38;;;;;;;19.70;17.15;;;;;;;5.16;71.14;95491.03;4993029;28;20528;-78
2021/04/18 01:01:04;;;;;;;20.35;18.42;;;;;;;5.04;71.94;95490.47;4991344;28;20566;-78
2021/04/18 01:03:30;;;;;;;21.00;18.90;;;;;;;5.38;71.08;95477.63;4990997;28;20548;-78
2021/04/18 01:05:56;;;;;;;21.73;19.50;;;;;;;5.57;70.20;95485.81;5006491;28;20117;-77
2021/04/18 01:08:21;;;;;;;20.42;18.42;;;;;;;5.40;70.77;95477.38;4991063;28;20022;-78
2021/04/18 01:10:47;;;;;;;21.40;19.25;;;;;;;5.27;71.22;95486.56;4993168;28;20416;-79
2021/04/18 01:13:12;;;;;;;20.67;18.58;;;;;;;5.64;70.04;95483.72;4990837;28;20038;-78
2021/04/18 01:15:38;;;;;;;20.70;18.65;;;;;;;5.86;69.16;95472.88;4991078;28;20127;-78
2021/04/18 01:18:04;;;;;;;20.88;18.70;;;;;;;5.93;68.59;95473.41;4990888;28;20081;-79
2021/04/18 01:20:30;;;;;;;21.02;18.92;;;;;;;5.44;70.01;95458.09;4990764;28;20114;-78
2021/04/18 01:22:55;;;;;;;22.25;19.92;;;;;;;5.51;69.89;95464.97;4992845;28;20101;-78
2021/04/18 01:25:21;;;;;;;22.35;20.10;;;;;;;5.11;71.94;95472.56;4991122;28;20034;-77
2021/04/18 01:27:48;;;;;;;22.73;20.25;;;;;;;5.22;71.82;95468.13;4990814;28;20034;-78
2021/04/18 01:30:24;;;;;;;22.52;20.25;;;;;;;5.40;71.13;95470.22;4990717;28;20034;-79
2021/04/18 01:32:52;;;;;;;22.98;20.67;;;;;;;5.09;71.99;95452.78;5005936;28;20031;-80
2021/04/18 01:35:18;;;;;;;23.35;21.05;;;;;;;5.15;72.50;95462.28;4990833;28;20109;-77
2021/04/18 01:37:44;;;;;;;24.50;20.80;;;;;;;5.50;71.63;95453.63;4992527;28;20034;-77
2021/04/18 01:40:11;;;;;;;22.08;19.77;;;;;;;4.35;75.09;95448.59;4990915;28;20042;-78
2021/04/18 01:42:37;;;;;;;23.35;20.98;;;;;;;4.70;74.26;95453.22;4990518;28;20445;-78
2021/04/18 01:45:04;;;;;;;22.75;20.35;;;;;;;4.86;73.66;95457.50;4990714;28;20061;-78
2021/04/18 01:47:29;;;;;;;23.55;20.98;;;;;;;4.74;73.80;95449.00;5005466;28;20038;-75
2021/04/18 01:49:55;;;;;;;22.95;20.50;;;;;;;4.52;74.79;95453.69;4992455;28;20081;-79
2021/04/18 01:52:20;;;;;;;23.40;20.92;;;;;;;4.75;74.53;95447.97;5005679;28;20070;-78
2021/04/18 01:54:45;;;;;;;24.88;22.15;;;;;;;5.01;73.75;95461.19;4990697;28;20034;-77
2021/04/18 01:57:11;;;;;;;25.27;22.17;;;;;;;5.28;72.78;95468.91;4990469;28;20064;-79
2021/04/18 01:59:36;;;;;;;24.55;21.85;;;;;;;4.95;73.08;95460.41;4990959;28;20066;-78
2021/04/18 02:02:07;;;;;;;24.38;21.80;;;;;;;5.06;73.05;95461.22;4992174;28;20030;-78
2021/04/18 02:04:32;;;;;;;24.45;21.80;;;;;;;4.36;76.04;95472.06;4990992;28;20489;-78
2021/04/18 02:06:58;;;;;;;24.15;21.67;;;;;;;4.41;76.61;95461.53;4990468;28;20088;-78
2021/04/18 02:09:23;;;;;;;24.20;21.60;;;;;;;4.43;75.57;95440.22;4991428;28;20493;-77
2021/04/18 02:11:48;;;;;;;25.40;22.38;;;;;;;4.38;76.01;95450.72;5009114;28;20177;-78
2021/04/18 02:14:14;;;;;;;26.58;23.77;;;;;;;4.68;75.64;95460.59;4994309;28;20034;-78
2021/04/18 02:16:39;;;;;;;24.67;22.15;;;;;;;5.03;74.06;95452.00;4996509;28;20034;-77
2021/04/18 02:19:05;;;;;;;28.27;23.77;;;;;;;5.25;73.36;95458.88;4993969;28;20373;-78
2021/04/18 02:21:30;;;;;;;25.67;22.98;;;;;;;5.41;72.39;95455.19;4993860;28;20034;-77
2021/04/18 02:23:56;;;;;;;27.42;23.25;;;;;;;4.99;73.22;95453.56;4994182;28;20030;-78
2021/04/18 02:26:22;;;;;;;24.25;21.75;;;;;;;4.77;74.24;95464.31;4994301;28;20026;-76
2021/04/18 02:28:47;;;;;;;28.48;25.00;;;;;;;5.07;73.68;95473.38;4995983;28;20048;-78
2021/04/18 02:31:13;;;;;;;24.17;21.70;;;;;;;4.67;74.98;95472.97;4993754;28;20249;-77
2021/04/18 02:33:39;;;;;;;25.33;22.63;;;;;;;4.81;74.85;95465.38;4994080;28;20076;-77
2021/04/18 02:36:05;;;;;;;30.92;24.92;;;;;;;5.22;73.77;95455.72;4993941;28;20041;-77
2021/04/18 02:38:30;;;;;;;24.58;21.98;;;;;;;4.51;75.45;95463.44;5008852;28;20045;-77
2021/04/18 02:40:56;;;;;;;26.42;22.70;;;;;;;4.99;74.30;95455.41;4995854;28;20026;-76
2021/04/18 02:43:21;;;;;;;25.63;22.85;;;;;;;5.30;73.83;95458.88;4993648;28;20088;-77
2021/04/18 02:45:47;;;;;;;25.20;22.13;;;;;;;5.50;73.30;95444.91;4994030;28;20034;-76
2021/04/18 02:48:13;;;;;;;26.35;23.55;;;;;;;5.73;72.11;95444.38;5008770;28;20377;-77
2021/04/18 02:50:38;;;;;;;28.08;23.27;;;;;;;5.43;71.75;95453.09;4993427;28;20416;-77
2021/04/18 02:53:03;;;;;;;25.75;22.23;;;;;;;5.79;71.11;95455.75;4994566;28;20034;-77
2021/04/18 02:55:29;;;;;;;26.42;23.38;;;;;;;6.00;70.66;95457.31;4993235;28;20105;-77
2021/04/18 02:57:54;;;;;;;26.20;23.48;;;;;;;6.11;70.63;95458.88;4993393;28;20038;-75
2021/04/18 03:00:20;;;;;;;28.63;23.67;;;;;;;6.21;69.54;95444.88;4993569;28;20113;-77
2021/04/18 03:02:45;;;;;;;25.98;23.27;;;;;;;6.32;69.61;95456.19;5008407;28;20031;-79
2021/04/18 03:05:11;;;;;;;25.08;22.35;;;;;;;5.92;69.57;95455.22;4993778;28;20057;-76
2021/04/18 03:07:36;;;;;;;26.27;22.25;;;;;;;5.43;71.18;95448.63;4995288;28;20030;-77
2021/04/18 03:10:03;;;;;;;25.70;22.90;;;;;;;5.63;71.07;95454.94;4993437;28;20088;-79
2021/04/18 03:12:29;;;;;;;30.90;22.88;;;;;;;5.46;71.43;95434.09;4993248;28;20031;-77
2021/04/18 03:14:54;;;;;;;27.08;23.85;;;;;;;5.74;71.29;95441.47;4993424;28;20027;-77
2021/04/18 03:17:20;;;;;;;28.13;24.95;;;;;;;5.89;70.54;95448.59;4993225;28;20139;-77
2021/04/18 03:19:45;;;;;;;26.02;23.23;;;;;;;5.64;70.79;95441.50;4995060;28;20464;-77
2021/04/18 03:22:10;;;;;;;29.48;25.02;;;;;;;5.58;71.15;95431.19;4992013;28;20038;-77
2021/04/18 03:24:38;;;;;;;26.73;23.77;;;;;;;5.85;70.31;95441.47;4993259;28;20073;-77
2021/04/18 03:27:04;;;;;;;29.92;23.63;;;;;;;5.50;71.13;95452.84;4993144;28;20116;-76
2021/04/18 03:29:30;;;;;;;25.27;22.55;;;;;;;5.60;70.92;95439.63;4993236;28;20117;-77
2021/04/18 03:31:55;;;;;;;29.35;24.33;;;;;;;5.89;70.79;95447.81;4994956;28;20049;-77
2021/04/18 03:34:20;;;;;;;26.42;23.63;;;;;;;5.79;70.32;95434.63;4993244;28;20049;-78
2021/04/18 03:36:46;;;;;;;27.73;24.73;;;;;;;6.01;70.50;95452.81;4992531;28;20042;-77
2021/04/18 03:39:12;;;;;;;26.02;23.23;;;;;;;5.47;71.16;95439.09;4992977;28;20528;-78
2021/04/18 03:41:37;;;;;;;25.27;22.55;;;;;;;4.76;73.90;95444.28;4992729;28;20420;-78
2021/04/18 03:44:03;;;;;;;26.77;23.77;;;;;;;5.34;73.03;95449.41;4995025;28;20028;-77
2021/04/18 03:46:28;;;;;;;26.27;23.48;;;;;;;4.88;73.99;95449.31;4992950;28;20026;-77
2021/04/18 03:48:54;;;;;;;28.58;24.55;;;;;;;4.71;75.42;95444.28;4991522;28;20054;-77
2021/04/18 03:51:19;;;;;;;29.55;25.50;;;;;;;5.28;74.03;95450.47;4992308;28;20488;-75
2021/04/18 03:53:44;;;;;;;29.63;25.42;;;;;;;5.36;73.35;95455.19;4992576;28;20035;-79
2021/04/18 03:56:10;;;;;;;29.13;24.48;;;;;;;5.01;73.71;95448.03;4992757;28;20042;-77
2021/04/18 03:58:35;;;;;;;27.58;23.75;;;;;;;5.02;74.17;95452.25;4994239;28;20076;-76
2021/04/18 04:01:01;;;;;;;29.60;24.10;;;;;;;4.52;76.01;95449.22;4992636;28;20035;-78
2021/04/18 04:03:26;;;;;;;30.02;25.30;;;;;;;4.51;75.76;95437.09;4992526;28;20104;-77
2021/04/18 04:05:52;;;;;;;28.88;25.73;;;;;;;4.51;76.38;95426.56;4992514;28;20042;-77
2021/04/18 04:08:17;;;;;;;26.75;23.92;;;;;;;4.78;74.84;95439.53;4992184;28;20077;-78
2021/04/18 04:10:42;;;;;;;27.95;24.42;;;;;;;4.73;76.27;95444.78;4994177;28;20088;-75
2021/04/18 04:13:08;;;;;;;32.15;25.35;;;;;;;5.02;75.66;95436.44;4992168;28;20117;-77
2021/04/18 04:15:34;;;;;;;31.73;25.48;;;;;;;4.77;76.04;95450.34;5007465;28;20129;-77
2021/04/18 04:17:59;;;;;;;31.20;26.92;;;;;;;4.42;76.84;95436.78;4992180;28;20097;-77
2021/04/18 04:20:24;;;;;;;33.28;27.80;;;;;;;4.77;76.22;95448.50;4991804;28;20049;-76
2021/04/18 04:22:50;;;;;;;32.00;26.77;;;;;;;4.87;75.62;95440.63;5008913;28;20046;-78
2021/04/18 04:25:15;;;;;;;32.67;26.92;;;;;;;4.58;76.64;95448.16;4992352;28;20031;-77
2021/04/18 04:27:40;;;;;;;33.65;26.33;;;;;;;4.23;77.87;95454.06;5006910;28;20074;-77
2021/04/18 04:30:07;;;;;;;34.15;26.73;;;;;;;4.37;77.97;95451.78;4992119;28;20037;-76
2021/04/18 04:32:32;;;;;;;32.10;26.92;;;;;;;4.68;76.66;95442.94;4991592;28;20420;-77
2021/04/18 04:34:58;;;;;;;34.55;27.77;;;;;;;4.73;76.82;95450.06;4993747;28;20026;-77
2021/04/18 04:37:23;;;;;;;31.50;26.75;;;;;;;4.46;77.66;95463.41;4992033;28;20039;-76
2021/04/18 04:39:49;;;;;;;35.65;28.08;;;;;;;4.65;77.16;95443.44;4991914;28;20030;-76
2021/04/18 04:42:15;;;;;;;33.47;26.30;;;;;;;4.46;77.65;95454.72;5006594;28;20085;-78
2021/04/18 04:44:40;;;;;;;33.25;27.05;;;;;;;4.14;79.38;95464.28;5007020;28;20571;-77
2021/04/18 04:47:06;;;;;;;34.63;27.08;;;;;;;4.32;78.19;95454.38;4991540;28;20171;-72
2021/04/18 04:49:31;;;;;;;34.30;27.83;;;;;;;4.73;77.35;95457.19;5008633;28;20027;-77
2021/04/18 04:51:56;;;;;;;33.03;27.10;;;;;;;4.49;77.73;95460.25;4991248;28;20042;-76
2021/04/18 04:54:22;;;;;;;32.70;26.02;;;;;;;4.02;79.69;95468.19;4991630;28;20086;-77
2021/04/18 04:56:47;;;;;;;30.83;27.42;;;;;;;4.04;79.54;95448.44;4991291;28;20392;-77
2021/04/18 04:59:12;;;;;;;33.95;27.35;;;;;;;4.07;80.01;95458.47;5006765;28;20018;-78
2021/04/18 05:01:38;;;;;;;33.00;26.58;;;;;;;4.42;78.85;95475.50;4993257;28;20029;-77
2021/04/18 05:04:04;;;;;;;35.22;27.00;;;;;;;4.41;79.32;95463.38;4991903;28;20042;-78
2021/04/18 05:06:29;;;;;;;31.55;26.73;;;;;;;4.37;78.26;95457.03;5006799;28;20033;-77
2021/04/18 05:08:55;;;;;;;30.88;26.17;;;;;;;4.62;78.18;95474.81;4991490;28;20035;-78
2021/04/18 05:11:20;;;;;;;34.30;28.52;;;;;;;5.13;76.64;95473.09;5006283;28;20476;-77
2021/04/18 05:13:45;;;;;;;32.65;27.00;;;;;;;4.90;76.49;95463.03;5008388;28;20056;-77
2021/04/18 05:16:11;;;;;;;34.65;27.98;;;;;;;5.23;75.45;95467.06;5006447;28;20065;-76
2021/04/18 05:18:36;;;;;;;32.78;27.40;;;;;;;5.01;76.11;95472.53;4991137;28;20038;-76
2021/04/18 05:21:01;;;;;;;33.65;26.23;;;;;;;4.61;76.78;95468.75;4991152;28;20098;-77
2021/04/18 05:23:27;;;;;;;29.88;25.70;;;;;;;4.72;76.43;95455.59;4990992;28;20057;-76
2021/04/18 05:25:53;;;;;;;31.85;27.77;;;;;;;5.07;76.59;95489.19;4993037;28;20026;-75
2021/04/18 05:28:19;;;;;;;31.40;26.13;;;;;;;5.10;75.45;95465.72;4990756;28;20464;-77
2021/04/18 05:30:44;;;;;;;29.58;26.30;;;;;;;5.52;74.68;95488.44;4991144;28;20098;-76
2021/04/18 05:33:10;;;;;;;27.70;24.70;;;;;;;5.95;73.81;95481.88;4990969;28;20045;-78
2021/04/18 05:35:35;;;;;;;30.60;25.67;;;;;;;5.54;73.52;95478.44;4990861;28;20095;-76
2021/04/18 05:38:01;;;;;;;27.98;23.58;;;;;;;5.44;73.42;95481.84;4991656;28;20465;-77
2021/04/18 05:40:26;;;;;;;32.90;26.58;;;;;;;5.26;74.38;95490.25;4990711;28;20046;-77
2021/04/18 05:42:51;;;;;;;26.52;23.52;;;;;;;4.98;75.59;95491.53;4990678;28;20042;-78
2021/04/18 05:45:17;;;;;;;29.77;25.42;;;;;;;5.10;75.68;95475.47;4990276;28;20111;-79
2021/04/18 05:47:42;;;;;;;30.85;24.85;;;;;;;4.82;76.70;95489.91;4990518;28;20037;-77
2021/04/18 05:50:08;;;;;;;32.92;24.80;;;;;;;4.82;76.99;95497.81;4990538;28;20057;-80
2021/04/18 05:52:33;;;;;;;26.77;23.77;;;;;;;4.41;78.05;95495.00;4992626;28;20064;-79
2021/04/18 05:54:58;;;;;;;27.33;23.65;;;;;;;4.54;77.68;95491.09;4990862;28;20041;-80
2021/04/18 05:57:24;;;;;;;30.30;25.10;;;;;;;4.78;78.07;95504.63;4990585;28;20060;-78
2021/04/18 05:59:49;;;;;;;29.20;22.55;;;;;;;4.52;78.37;95498.47;4990601;28;20443;-78
2021/04/18 06:02:14;;;;;;;26.30;22.38;;;;;;;4.50;78.11;95498.69;4990558;28;20429;-79
2021/04/18 06:04:40;;;;;;;27.55;24.52;;;;;;;4.86;76.63;95496.22;4992726;28;20022;-77
2021/04/18 06:07:05;;;;;;;29.88;26.38;;;;;;;5.12;76.30;95494.47;5005761;28;20042;-78
2021/04/18 06:09:31;;;;;;;30.05;26.77;;;;;;;5.67;74.46;95506.13;5005639;28;20057;-79
2021/04/18 06:11:56;;;;;;;30.38;24.52;;;;;;;4.68;77.08;95510.66;4990087;28;20046;-78
2021/04/18 06:14:22;;;;;;;30.58;24.42;;;;;;;4.85;76.29;95510.44;4990676;28;20120;-78
2021/04/18 06:16:49;;;;;;;31.13;25.38;;;;;;;4.69;76.87;95493.78;4992478;28;20050;-79
2021/04/18 06:19:15;;;;;;;30.45;24.35;;;;;;;4.78;77.42;95499.38;5005515;28;20530;-77
2021/04/18 06:21:40;;;;;;;29.75;25.45;;;;;;;4.79;78.09;95508.84;4990250;28;20054;-78
2021/04/18 06:24:07;;;;;;;29.35;24.85;;;;;;;4.87;76.79;95485.44;5005386;28;20129;-79
2021/04/18 06:26:32;;;;;;;27.80;24.80;;;;;;;5.50;75.57;95493.19;4990539;28;20042;-78
2021/04/18 06:28:57;;;;;;;26.90;24.00;;;;;;;5.29;74.26;95510.06;4992124;28;20084;-78
2021/04/18 06:31:23;;;;;;;27.58;22.92;;;;;;;5.06;75.18;95509.47;4989146;28;20027;-76
2021/04/18 06:33:48;;;;;;;33.55;25.10;;;;;;;4.85;76.10;95486.72;5005271;28;20515;-80
2021/04/18 06:36:13;;;;;;;30.67;25.30;;;;;;;5.25;75.33;95511.63;4990498;28;20047;-76
2021/04/18 06:38:39;;;;;;;31.85;25.20;;;;;;;5.39;74.62;95481.06;4990573;28;20036;-77
2021/04/18 06:41:04;;;;;;;28.42;24.88;;;;;;;6.06;74.09;95503.78;4992428;28;20045;-79
2021/04/18 06:43:30;;;;;;;30.00;25.33;;;;;;;6.06;72.77;95503.78;4990419;28;20500;-78
2021/04/18 06:45:56;;;;;;;28.33;24.17;;;;;;;5.85;72.31;95491.63;4990501;28;20034;-77
2021/04/18 06:48:21;;;;;;;28.98;24.02;;;;;;;6.17;72.54;95510.63;4990065;28;20121;-78
2021/04/18 06:50:47;;;;;;;30.58;25.75;;;;;;;6.51;71.55;95512.69;4990007;28;20039;-78
2021/04/18 06:53:13;;;;;;;26.17;23.48;;;;;;;6.42;70.03;95507.16;4990531;28;20030;-77
2021/04/18 06:55:39;;;;;;;28.48;23.52;;;;;;;5.92;70.91;95510.66;5008570;28;20117;-76
2021/04/18 06:58:05;;;;;;;27.77;24.33;;;;;;;6.18;71.49;95504.28;5009161;28;20126;-81
2021/04/18 07:00:32;;;;;;;26.88;23.98;;;;;;;6.39;70.42;95502.38;4994789;28;20045;-81
2021/04/18 07:03:23;;;;;;;26.17;23.27;;;;;;;6.55;70.59;95500.50;5009534;28;20404;-80
2021/04/18 07:05:50;;;;;;;26.67;23.67;;;;;;;6.40;69.55;95492.66;4994423;28;20129;-80
2021/04/18 07:08:31;;;;;;;26.38;23.30;;;;;;;6.46;70.23;95502.91;5009534;28;20023;-80
2021/04/18 07:11:26;;;;;;;27.60;23.13;;;;;;;5.83;72.87;95509.56;4996254;28;20427;-83
2021/04/18 07:13:52;;;;;;;27.88;23.77;;;;;;;6.03;72.18;95499.03;4981796;28;20038;-81
2021/04/18 07:16:26;;;;;;;30.88;23.73;;;;;;;6.21;72.03;95500.34;5009724;28;20065;-82
2021/04/18 07:18:52;;;;;;;30.10;24.50;;;;;;;5.13;76.03;95506.59;4994184;28;20492;-80
2021/04/18 07:21:19;;;;;;;28.17;25.10;;;;;;;5.84;74.95;95503.25;5009047;28;20113;-80
2021/04/18 07:23:44;;;;;;;28.70;25.70;;;;;;;6.17;72.70;95478.94;4994313;28;20054;-81
2021/04/18 07:26:23;;;;;;;26.38;23.77;;;;;;;6.96;71.47;95477.34;4994238;28;20395;-81
2021/04/18 07:28:53;;;;;;;27.40;24.40;;;;;;;7.46;68.96;95496.63;5011102;28;20435;-80
2021/04/18 07:31:33;;;;;;;26.73;23.27;;;;;;;7.51;66.44;95490.50;4993994;28;20064;-81
2021/04/18 07:33:59;;;;;;;26.92;24.08;;;;;;;7.54;65.86;95498.69;4993860;28;20062;-81
2021/04/18 07:36:25;;;;;;;28.45;25.38;;;;;;;7.76;65.65;95490.31;4993307;28;20058;-78
2021/04/18 07:38:51;;;;;;;26.92;24.15;;;;;;;7.29;66.83;95478.47;4993471;28;20058;-70
2021/04/18 07:41:19;;;;;;;26.85;24.02;;;;;;;6.98;67.79;95487.66;5008284;28;20023;-82
2021/04/18 07:43:45;;;;;;;26.35;23.63;;;;;;;7.08;66.47;95477.03;4995645;28;20551;-80
2021/04/18 07:46:11;;;;;;;27.75;24.75;;;;;;;6.13;70.54;95474.44;4993351;28;20046;-72
2021/04/18 07:48:38;;;;;;;25.48;22.88;;;;;;;6.09;71.42;95499.81;4992580;28;20513;-81
2021/04/18 07:51:04;;;;;;;28.92;25.33;;;;;;;6.13;71.12;95445.41;5006789;28;20065;-77
2021/04/18 07:53:30;;;;;;;28.08;25.08;;;;;;;7.24;69.13;95498.88;4992021;28;20046;-73
2021/04/18 07:55:55;;;;;;;26.90;24.27;;;;;;;7.44;66.71;95456.41;4994630;28;20027;-65
2021/04/18 07:58:21;;;;;;;26.80;24.13;;;;;;;7.69;65.14;95481.91;5007205;28;20045;-77
2021/04/18 08:00:46;;;;;;;25.40;22.88;;;;;;;8.32;64.74;95495.13;4991748;28;20369;-75
2021/04/18 08:03:16;;;;;;;24.83;22.48;;;;;;;8.86;63.25;95490.59;4992520;28;20492;-73
2021/04/18 08:05:44;;;;;;;24.20;21.73;;;;;;;8.00;62.74;95495.69;4991371;28;20038;-74
2021/04/18 08:08:14;;;;;;;25.80;23.10;;;;;;;7.84;64.43;95488.16;4991316;28;20044;-73
2021/04/18 08:10:41;;;;;;;25.67;23.05;;;;;;;7.77;65.53;95497.19;4994129;28;20039;-70
2021/04/18 08:13:23;;;;;;;25.77;23.35;;;;;;;8.48;63.55;95487.84;4991451;28;20100;-69
2021/04/18 08:16:02;;;;;;;;;;;;;;;8.92;62.10;95486.03;4992796;28;20041;-75
2021/04/18 08:18:28;;;;;;;24.20;21.77;;;;;;;9.21;60.37;95486.69;4991723;28;19917;-68
2021/04/18 08:20:55;;;;;;;24.95;22.40;;;;;;;9.54;59.90;95487.56;4990905;28;20081;-73
2021/04/18 08:23:22;;;;;;;25.17;22.67;;;;;;;10.02;58.90;95494.50;5015223;28;20102;-68
2021/04/18 08:26:09;;;;;;;25.52;23.13;;;;;;;10.30;57.06;95498.84;5016984;28;20030;-68
2021/04/18 08:29:01;;;;;;;28.52;25.50;;;;;;;8.40;60.91;95495.63;4994944;28;20054;-71
2021/04/18 08:31:32;;;;;;;26.33;23.83;;;;;;;8.36;62.01;95494.56;4990612;28;20726;-71
2021/04/18 08:34:05;;;;;;;27.33;24.70;;;;;;;8.57;62.82;95496.75;4990122;28;20047;-72
2021/04/18 08:36:33;;;;;;;29.02;25.13;;;;;;;8.32;62.17;95504.94;4991618;28;20491;-68
2021/04/18 08:38:58;;;;;;;26.88;24.05;;;;;;;7.71;64.58;95503.59;4991269;28;20049;-76
2021/04/18 08:41:36;;;;;;;25.15;22.65;;;;;;;8.45;61.34;95504.31;4991268;28;20030;-71
2021/04/18 08:44:22;;;;;;;24.92;22.63;;;;;;;7.99;63.59;95506.59;4993358;28;20022;-72
2021/04/18 08:47:00;;;;;;;23.30;21.30;;;;;;;9.10;61.60;95462.16;5006697;28;20436;-70
2021/04/18 08:49:40;;;;;;;24.08;21.67;;;;;;;9.22;58.16;95506.09;4990572;28;20130;-71
2021/04/18 08:52:08;;;;;;;24.00;21.80;;;;;;;9.45;56.35;95478.66;4991018;28;20042;-73
2021/04/18 08:54:45;;;;;;;24.95;22.63;;;;;;;9.75;57.58;95505.84;4989789;28;20039;-73
2021/04/18 08:57:14;;;;;;;24.15;21.83;;;;;;;7.62;63.33;95475.34;4991152;28;20039;-73
2021/04/18 08:59:42;;;;;;;26.23;23.73;;;;;;;7.49;65.08;95517.25;4989006;28;20053;-71
2021/04/18 09:02:09;;;;;;;27.75;25.15;;;;;;;7.14;67.54;95512.97;4989784;28;20088;-72
2021/04/18 09:04:40;;;;;;;27.50;24.70;;;;;;;7.16;65.36;95479.06;4992776;28;20026;-72
2021/04/18 09:07:08;;;;;;;29.65;25.67;;;;;;;6.86;65.58;95476.59;4989606;28;20044;-70
2021/04/18 09:09:34;;;;;;;34.40;30.23;;;;;;;7.04;68.30;95520.94;4990855;28;20026;-73
2021/04/18 09:11:59;;;;;;;36.75;30.42;;;;;;;6.65;70.54;95489.09;4988590;28;20030;-71
2021/04/18 09:14:33;;;;;;;36.13;29.17;;;;;;;6.03;71.72;95512.22;4990673;28;20046;-69
2021/04/18 09:17:22;;;;;;;37.50;30.40;;;;;;;6.86;71.99;95526.81;4991266;28;20026;-75
2021/04/18 09:19:49;;;;;;;37.33;29.98;;;;;;;7.35;69.35;95521.56;4989710;28;20069;-69
2021/04/18 09:22:20;;;;;;;32.20;28.05;;;;;;;6.72;68.40;95527.41;4990464;28;20141;-73
2021/04/18 09:24:56;;;;;;;35.85;31.88;;;;;;;7.59;68.75;95526.22;5005123;28;20121;-73
2021/04/18 09:27:33;;;;;;;33.83;29.63;;;;;;;7.09;66.87;95520.94;4989198;28;20129;-72
2021/04/18 09:30:15;;;;;;;33.58;29.92;;;;;;;7.79;67.18;95520.78;4990155;28;20030;-68
2021/04/18 09:32:42;;;;;;;;;;;;;;;7.98;66.61;95520.88;4989091;28;20124;-71
2021/04/18 09:35:09;;;;;;;35.85;30.15;;;;;;;8.51;65.00;95523.63;4988563;28;20360;-71
2021/04/18 09:37:37;;;;;;;31.92;27.92;;;;;;;7.23;64.67;95447.03;5007375;28;20109;-71
2021/04/18 09:40:05;;;;;;;30.33;26.55;;;;;;;6.95;65.80;95464.38;4989981;28;20564;-71
2021/04/18 09:42:34;;;;;;;31.15;27.90;;;;;;;8.32;63.26;95520.84;4989050;28;20436;-72
2021/04/18 09:45:08;;;;;;;30.73;27.50;;;;;;;9.31;61.27;95517.63;5005607;28;20054;-72
2021/04/18 09:47:34;;;;;;;30.40;27.38;;;;;;;9.11;59.22;95497.47;4989706;28;20065;-71
2021/04/18 09:50:03;;;;;;;31.63;28.35;;;;;;;10.36;58.37;95526.16;4991807;28;20031;-71
2021/04/18 09:52:35;;;;;;;29.67;26.67;;;;;;;10.09;55.34;95485.09;4989862;28;20038;-75
2021/04/18 09:55:19;;;;;;;28.85;25.98;;;;;;;10.65;54.47;95520.59;5005916;28;20034;-77
2021/04/18 09:57:57;;;;;;;28.90;25.95;;;;;;;11.49;54.60;95500.78;4990513;28;20084;-76
2021/04/18 10:00:26;;;;;;;30.73;27.58;;;;;;;10.20;54.25;95525.59;4990286;28;20030;-76
2021/04/18 10:03:09;;;;;;;31.90;28.80;;;;;;;9.97;56.36;95483.97;5004526;28;20165;-73
2021/04/18 10:05:45;;;;;;;30.50;27.50;;;;;;;9.10;57.78;95495.84;5003226;28;20408;-70
2021/04/18 10:08:31;;;;;;;31.38;28.27;;;;;;;8.65;61.49;95524.53;4990066;28;20034;-69
2021/04/18 10:10:58;;;;;;;31.88;28.58;;;;;;;8.97;59.23;95489.41;4992379;28;20030;-71
2021/04/18 10:13:35;;;;;;;29.95;26.85;;;;;;;8.79;59.71;95519.31;4989566;28;20493;-69
2021/04/18 10:16:04;;;;;;;28.90;26.17;;;;;;;9.88;56.55;95523.72;4989913;28;20552;-70
2021/04/18 10:18:30;;;;;;;30.60;27.58;;;;;;;8.54;59.21;95477.97;4987124;28;20495;-76
2021/04/18 10:21:17;;;;;;;30.40;27.38;;;;;;;8.55;58.81;95435.28;4986868;28;20066;-67
2021/04/18 10:23:43;;;;;;;30.38;27.38;;;;;;;8.95;59.77;95499.50;4989688;28;20121;-68
2021/04/18 10:26:09;;;;;;;28.88;26.02;;;;;;;8.91;59.40;95457.94;4989984;28;20069;-70
2021/04/18 10:28:34;;;;;;;29.65;26.75;;;;;;;8.71;60.42;95496.88;4991725;28;20469;-66
2021/04/18 10:31:00;;;;;;;26.27;23.88;;;;;;;8.92;57.38;95432.97;4990403;28;20042;-70
2021/04/18 10:33:26;;;;;;;27.58;24.92;;;;;;;9.47;57.91;95521.66;4992156;28;20046;-73
2021/04/18 10:35:58;;;;;;;26.48;23.95;;;;;;;9.76;58.45;95516.19;4993645;28;20076;-73
2021/04/18 10:38:23;;;;;;;25.20;22.92;;;;;;;10.28;57.69;95494.91;4993531;28;20081;-70
2021/04/18 10:40:49;;;;;;;22.55;20.55;;;;;;;10.10;53.35;95515.13;4994010;28;20018;-67
2021/04/18 10:43:15;;;;;;;22.98;20.98;;;;;;;11.09;52.70;95513.88;4993269;28;20101;-68
2021/04/18 10:45:41;;;;;;;22.80;20.90;;;;;;;10.40;52.71;95497.91;4993517;28;20112;-73
2021/04/18 10:48:07;;;;;;;23.40;21.30;;;;;;;9.78;55.35;95492.78;5007855;28;20405;-73
2021/04/18 10:50:33;;;;;;;24.40;22.17;;;;;;;8.74;58.87;95491.00;4992851;28;20130;-72
2021/04/18 10:52:59;;;;;;;22.85;20.92;;;;;;;10.18;57.36;95500.38;4994253;28;20508;-73
2021/04/18 10:55:24;;;;;;;23.20;21.20;;;;;;;10.09;56.10;95497.59;5008604;28;20042;-73
2021/04/18 10:57:50;;;;;;;21.45;19.42;;;;;;;10.64;53.31;95498.47;4993414;28;20026;-78
2021/04/18 11:00:16;;;;;;;20.98;19.27;;;;;;;10.76;53.84;95499.91;4993249;28;20042;-77
2021/04/18 11:02:42;;;;;;;19.60;18.00;;;;;;;11.14;50.80;95489.78;4992788;28;20110;-76
2021/04/18 11:05:08;;;;;;;16.85;15.43;;;;;;;9.73;52.53;95479.59;4993176;28;20105;-78
2021/04/18 11:07:33;;;;;;;16.88;15.57;;;;;;;10.81;50.47;95499.78;4994808;28;20034;-75
2021/04/18 11:09:59;;;;;;;19.42;17.90;;;;;;;10.49;52.26;95484.69;5007953;28;20030;-74
2021/04/18 11:12:24;;;;;;;20.10;18.40;;;;;;;10.33;53.27;95486.84;4992825;28;20533;-77
2021/04/18 11:14:50;;;;;;;21.33;19.33;;;;;;;10.36;52.99;95503.00;4993391;28;20035;-77
2021/04/18 11:17:15;;;;;;;22.05;20.15;;;;;;;9.27;55.93;95500.69;4992950;28;20026;-77
2021/04/18 11:19:41;;;;;;;23.92;21.80;;;;;;;10.26;55.02;95473.16;4994703;28;20490;-74
2021/04/18 11:22:06;;;;;;;23.83;21.42;;;;;;;10.38;53.73;95484.09;4992561;28;20711;-76
2021/04/18 11:24:32;;;;;;;22.40;20.55;;;;;;;9.08;56.99;95480.22;4993599;28;20039;-77